Time;durP1;ratioP1;P1;durP2;ratioP2;P2;SDS_P1;SDS_P2;PMS_P1;PMS_P2;Temp;Humidity;BMP_temperature;BMP_pressure;BME280_temperature;BME280_humidity;BME280_pressure;Samples;Min_cycle;Max_cycle;Signal;HPM_P1;HPM_P2
2023/04/23 00:00:02;;;;;;;13.75;6.30;;;;;;;;;;5014386;28;20044;-75
2023/04/23 00:02:29;;;;;;;10.30;7.13;;;;;;;;;;5014363;28;20506;-75
2023/04/23 00:04:57;;;;;;;13.63;6.53;;;;;;;;;;5014322;28;20026;-75
2023/04/23 00:07:23;;;;;;;9.00;6.00;;;;;;;;;;5030588;23;20563;-71
2023/04/23 00:09:52;;;;;;;9.45;5.95;;;;;;;;;;5013461;28;20432;-71
2023/04/23 00:12:19;;;;;;;14.07;6.95;;;;;;;;;;5012562;28;20018;-72
2023/04/23 00:14:45;;;;;;;11.95;6.78;;;;;;;;;;5012888;28;20046;-71
2023/04/23 00:17:11;;;;;;;10.77;6.05;;;;;;;;;;5013461;28;20151;-71
2023/04/23 00:19:37;;;;;;;12.90;6.30;;;;;;;;;;5014331;28;20026;-72
2023/04/23 00:22:04;;;;;;;13.52;6.88;;;;;;;;;;5015349;28;20476;-72
2023/04/23 00:24:30;;;;;;;10.23;5.80;;;;;;;;;;4997930;28;20022;-72
2023/04/23 00:26:56;;;;;;;11.18;6.07;;;;;;;;;;5014746;28;20059;-71
2023/04/23 00:29:22;;;;;;;13.15;5.72;;;;;;;;;;4995545;28;20472;-72
2023/04/23 00:31:48;;;;;;;10.68;5.97;;;;;;;;;;5013942;28;20026;-72
2023/04/23 00:34:14;;;;;;;11.07;5.95;;;;;;;;;;5014004;28;20042;-72
2023/04/23 00:36:40;;;;;;;9.70;5.80;;;;;;;;;;5013683;28;20373;-72
2023/04/23 00:39:06;;;;;;;10.60;5.68;;;;;;;;;;5013624;28;20592;-73
2023/04/23 00:41:33;;;;;;;10.38;6.30;;;;;;;;;;5013718;28;20105;-71
2023/04/23 00:44:00;;;;;;;11.77;6.32;;;;;;;;;;5013748;28;20030;-72
2023/04/23 00:46:26;;;;;;;8.93;5.10;;;;;;;;;;4997511;28;20530;-72
2023/04/23 00:48:52;;;;;;;9.57;6.38;;;;;;;;;;5013088;28;20049;-71
2023/04/23 00:51:18;;;;;;;10.05;5.88;;;;;;;;;;5013455;28;20018;-72
2023/04/23 00:53:45;;;;;;;13.05;6.30;;;;;;;;;;5013301;28;20026;-72
2023/04/23 00:56:11;;;;;;;8.40;5.65;;;;;;;;;;5013286;28;20403;-72
2023/04/23 00:58:40;;;;;;;11.15;6.00;;;;;;;;;;5013009;28;20033;-72
2023/04/23 01:01:06;;;;;;;9.05;5.72;;;;;;;;;;5013432;28;20026;-72
2023/04/23 01:03:35;;;;;;;10.52;5.70;;;;;;;;;;5013432;28;20018;-72
2023/04/23 01:06:01;;;;;;;11.15;5.85;;;;;;;;;;4995405;28;20037;-72
2023/04/23 01:08:28;;;;;;;9.07;5.15;;;;;;;;;;5012957;28;20033;-72
2023/04/23 01:10:54;;;;;;;16.58;6.50;;;;;;;;;;5013132;28;20026;-72
2023/04/23 01:13:28;;;;;;;8.88;5.20;;;;;;;;;;4995275;28;20022;-72
2023/04/23 01:15:54;;;;;;;8.02;5.95;;;;;;;;;;5012978;28;20476;-72
2023/04/23 01:18:20;;;;;;;11.35;5.97;;;;;;;;;;5012603;28;20050;-72
2023/04/23 01:20:46;;;;;;;8.02;5.82;;;;;;;;;;5012889;28;20200;-72
2023/04/23 01:23:12;;;;;;;9.30;5.57;;;;;;;;;;4995135;28;20052;-72
2023/04/23 01:25:38;;;;;;;10.27;5.72;;;;;;;;;;5013046;28;20029;-73
2023/04/23 01:28:08;;;;;;;8.10;5.25;;;;;;;;;;5012792;28;20459;-73
2023/04/23 01:30:35;;;;;;;8.32;5.28;;;;;;;;;;5013178;28;20022;-72
2023/04/23 01:33:01;;;;;;;12.18;6.28;;;;;;;;;;5012822;28;20022;-72
2023/04/23 01:35:28;;;;;;;11.43;6.13;;;;;;;;;;5012832;28;20080;-72
2023/04/23 01:37:55;;;;;;;9.27;5.22;;;;;;;;;;5012284;28;20034;-72
2023/04/23 01:40:21;;;;;;;17.13;6.43;;;;;;;;;;5012709;28;20049;-72
2023/04/23 01:42:48;;;;;;;11.27;5.68;;;;;;;;;;5012725;28;20547;-72
2023/04/23 01:45:16;;;;;;;10.10;5.80;;;;;;;;;;5012612;28;20036;-73
2023/04/23 01:47:42;;;;;;;10.27;5.80;;;;;;;;;;5012633;28;20014;-72
2023/04/23 01:50:08;;;;;;;9.27;5.55;;;;;;;;;;5012348;28;20134;-72
2023/04/23 01:52:35;;;;;;;13.00;5.72;;;;;;;;;;5012548;28;20022;-73
2023/04/23 01:55:01;;;;;;;9.65;5.60;;;;;;;;;;5012349;28;20022;-72
2023/04/23 01:57:27;;;;;;;7.35;5.30;;;;;;;;;;5012154;28;20024;-73
2023/04/23 01:59:57;;;;;;;11.40;5.93;;;;;;;;;;5012281;28;20030;-72
2023/04/23 02:02:24;;;;;;;12.93;5.95;;;;;;;;;;5012124;28;20472;-72
2023/04/23 02:04:51;;;;;;;12.65;6.07;;;;;;;;;;5012085;28;20014;-72
2023/04/23 02:07:17;;;;;;;11.05;5.40;;;;;;;;;;5012070;28;20087;-72
2023/04/23 02:09:43;;;;;;;9.32;5.88;;;;;;;;;;5012085;28;20032;-72
2023/04/23 02:12:09;;;;;;;8.43;5.70;;;;;;;;;;5012025;28;20018;-73
2023/04/23 02:14:35;;;;;;;9.93;5.28;;;;;;;;;;5011952;28;20017;-73
2023/04/23 02:17:02;;;;;;;8.70;5.65;;;;;;;;;;4994162;28;20032;-73
2023/04/23 02:19:30;;;;;;;11.00;5.75;;;;;;;;;;5011937;28;20026;-73
2023/04/23 02:21:56;;;;;;;10.27;5.15;;;;;;;;;;5012078;28;20109;-74
2023/04/23 02:24:22;;;;;;;8.85;5.40;;;;;;;;;;5011816;28;20054;-73
2023/04/23 02:26:48;;;;;;;9.40;5.75;;;;;;;;;;5011779;28;20053;-72
2023/04/23 02:29:14;;;;;;;10.40;6.00;;;;;;;;;;5012161;28;20021;-74
2023/04/23 02:31:40;;;;;;;9.23;6.35;;;;;;;;;;5012100;28;20071;-73
2023/04/23 02:34:07;;;;;;;12.57;6.25;;;;;;;;;;5011745;28;20025;-73
2023/04/23 02:36:33;;;;;;;9.90;5.88;;;;;;;;;;4994197;28;20488;-72
2023/04/23 02:38:59;;;;;;;8.90;5.53;;;;;;;;;;5011427;28;20050;-73
2023/04/23 02:41:25;;;;;;;9.50;5.80;;;;;;;;;;5011947;28;20053;-73
2023/04/23 02:43:51;;;;;;;8.07;5.32;;;;;;;;;;5011785;28;20026;-72
2023/04/23 02:46:17;;;;;;;11.10;5.47;;;;;;;;;;5011484;28;20447;-72
2023/04/23 02:48:43;;;;;;;8.88;6.22;;;;;;;;;;5011254;28;20050;-69
2023/04/23 02:51:10;;;;;;;13.60;7.03;;;;;;;;;;5011122;28;20048;-71
2023/04/23 02:53:36;;;;;;;9.60;5.68;;;;;;;;;;5011372;28;20022;-71
2023/04/23 02:56:02;;;;;;;8.02;5.00;;;;;;;;;;5011562;28;20029;-71
2023/04/23 02:58:29;;;;;;;12.80;6.18;;;;;;;;;;5011083;28;20483;-71
2023/04/23 03:00:55;;;;;;;9.02;6.03;;;;;;;;;;5011375;28;20026;-71
2023/04/23 03:03:25;;;;;;;11.30;5.70;;;;;;;;;;5011492;28;20030;-71
2023/04/23 03:05:51;;;;;;;11.15;5.97;;;;;;;;;;5011298;28;20109;-72
2023/04/23 03:08:17;;;;;;;11.85;6.18;;;;;;;;;;5010953;28;20030;-72
2023/04/23 03:10:43;;;;;;;9.75;6.32;;;;;;;;;;5011223;28;20395;-70
2023/04/23 03:13:09;;;;;;;15.82;6.45;;;;;;;;;;5011336;28;20104;-72
2023/04/23 03:15:35;;;;;;;8.98;6.05;;;;;;;;;;4993529;28;20114;-72
2023/04/23 03:18:03;;;;;;;9.23;6.15;;;;;;;;;;4993581;28;20053;-71
2023/04/23 03:20:29;;;;;;;9.40;6.22;;;;;;;;;;5012588;28;20541;-72
2023/04/23 03:22:55;;;;;;;9.82;6.13;;;;;;;;;;5011989;28;20486;-72
2023/04/23 03:25:23;;;;;;;8.07;5.97;;;;;;;;;;4993888;28;20400;-71
2023/04/23 03:27:50;;;;;;;11.77;5.93;;;;;;;;;;5011138;28;20018;-72
2023/04/23 03:30:16;;;;;;;10.68;6.55;;;;;;;;;;5011179;28;20018;-72
2023/04/23 03:32:42;;;;;;;9.30;5.75;;;;;;;;;;5011484;28;20101;-72
2023/04/23 03:35:08;;;;;;;11.20;6.13;;;;;;;;;;4993505;28;20053;-72
2023/04/23 03:37:34;;;;;;;11.10;5.78;;;;;;;;;;5010839;28;20032;-71
2023/04/23 03:40:05;;;;;;;12.07;6.28;;;;;;;;;;5010933;28;20033;-72
2023/04/23 03:42:31;;;;;;;8.13;6.35;;;;;;;;;;5011123;28;20029;-72
2023/04/23 03:44:58;;;;;;;12.38;6.43;;;;;;;;;;4993506;28;20029;-73
2023/04/23 03:47:25;;;;;;;9.63;6.25;;;;;;;;;;5010686;28;20167;-71
2023/04/23 03:49:51;;;;;;;11.85;6.20;;;;;;;;;;5011234;28;20060;-71
2023/04/23 03:52:17;;;;;;;11.00;6.45;;;;;;;;;;5011154;28;20022;-73
2023/04/23 03:54:43;;;;;;;11.18;6.40;;;;;;;;;;5011179;28;20018;-72
2023/04/23 03:57:12;;;;;;;12.15;7.03;;;;;;;;;;5011330;28;20152;-71
2023/04/23 03:59:38;;;;;;;14.00;6.63;;;;;;;;;;5011189;28;20030;-72
2023/04/23 04:02:05;;;;;;;11.45;6.70;;;;;;;;;;5011831;28;20052;-72
2023/04/23 04:04:31;;;;;;;11.90;6.15;;;;;;;;;;5014629;28;20022;-72
2023/04/23 04:06:59;;;;;;;13.32;6.38;;;;;;;;;;5014354;28;20484;-71
2023/04/23 04:09:25;;;;;;;9.57;6.05;;;;;;;;;;5013994;28;20018;-72
2023/04/23 04:11:51;;;;;;;10.55;6.50;;;;;;;;;;4996369;28;20076;-72
2023/04/23 04:14:17;;;;;;;11.15;5.68;;;;;;;;;;5014257;28;20026;-72
2023/04/23 04:16:43;;;;;;;11.02;6.30;;;;;;;;;;5014194;28;20022;-73
2023/04/23 04:19:09;;;;;;;9.27;6.20;;;;;;;;;;5013902;28;20051;-73
2023/04/23 04:21:36;;;;;;;13.43;5.85;;;;;;;;;;5013950;28;20506;-73
2023/04/23 04:24:03;;;;;;;12.30;6.53;;;;;;;;;;5013938;28;20026;-73
2023/04/23 04:26:31;;;;;;;8.15;5.97;;;;;;;;;;5013683;28;20037;-73
2023/04/23 04:28:58;;;;;;;12.20;6.68;;;;;;;;;;5013666;28;20026;-73
2023/04/23 04:31:24;;;;;;;20.45;7.57;;;;;;;;;;5013763;28;20029;-72
2023/04/23 04:33:50;;;;;;;11.05;6.32;;;;;;;;;;5013881;28;20022;-73
2023/04/23 04:36:17;;;;;;;11.07;7.00;;;;;;;;;;5013628;28;20037;-73
2023/04/23 04:38:43;;;;;;;10.50;6.65;;;;;;;;;;4995831;28;20025;-71
2023/04/23 04:41:10;;;;;;;8.50;6.28;;;;;;;;;;5015126;28;20441;-71
2023/04/23 04:43:36;;;;;;;10.57;6.20;;;;;;;;;;5013605;28;20108;-70
2023/04/23 04:46:02;;;;;;;11.38;6.43;;;;;;;;;;5013285;28;20030;-71
2023/04/23 04:48:29;;;;;;;8.93;6.70;;;;;;;;;;4995907;28;20109;-72
2023/04/23 04:50:55;;;;;;;11.30;6.97;;;;;;;;;;5013592;28;20053;-72
2023/04/23 04:53:21;;;;;;;10.23;5.93;;;;;;;;;;5013450;28;20034;-72
2023/04/23 04:55:47;;;;;;;11.52;6.15;;;;;;;;;;5013228;28;20025;-72
2023/04/23 04:58:13;;;;;;;8.95;6.50;;;;;;;;;;5012903;28;20029;-72
2023/04/23 05:00:39;;;;;;;11.52;6.30;;;;;;;;;;5013230;28;20053;-70
2023/04/23 05:03:06;;;;;;;8.63;5.70;;;;;;;;;;4995718;28;20022;-71
2023/04/23 05:05:32;;;;;;;8.48;5.78;;;;;;;;;;5013048;28;20092;-72
2023/04/23 05:08:00;;;;;;;8.52;5.13;;;;;;;;;;5012755;28;20446;-72
2023/04/23 05:10:27;;;;;;;7.55;5.50;;;;;;;;;;4997120;28;20101;-71
2023/04/23 05:12:53;;;;;;;15.80;6.07;;;;;;;;;;5013174;28;20021;-72
2023/04/23 05:15:19;;;;;;;9.90;5.72;;;;;;;;;;5012794;28;20113;-70
2023/04/23 05:17:45;;;;;;;10.20;5.68;;;;;;;;;;5012830;28;20049;-71
2023/04/23 05:20:11;;;;;;;12.57;5.55;;;;;;;;;;5013022;28;20022;-72
2023/04/23 05:22:41;;;;;;;10.07;6.25;;;;;;;;;;5012912;28;20384;-71
2023/04/23 05:25:08;;;;;;;13.82;5.82;;;;;;;;;;5012703;28;20061;-71
2023/04/23 05:27:34;;;;;;;11.40;5.90;;;;;;;;;;5013012;28;20514;-72
2023/04/23 05:30:02;;;;;;;10.85;5.90;;;;;;;;;;5013176;28;20046;-71
2023/04/23 05:32:28;;;;;;;9.43;6.15;;;;;;;;;;5013265;28;20468;-72
2023/04/23 05:34:54;;;;;;;8.57;5.45;;;;;;;;;;4995514;28;20444;-72
2023/04/23 05:37:21;;;;;;;11.88;6.22;;;;;;;;;;5012355;28;20028;-73
2023/04/23 05:39:47;;;;;;;9.90;5.88;;;;;;;;;;5012760;28;20037;-71
2023/04/23 05:42:13;;;;;;;7.65;5.47;;;;;;;;;;5012630;28;20030;-72
2023/04/23 05:44:40;;;;;;;9.95;5.88;;;;;;;;;;5012787;28;20157;-71
2023/04/23 05:47:07;;;;;;;11.18;6.20;;;;;;;;;;5012254;28;20036;-71
2023/04/23 05:49:34;;;;;;;12.38;6.30;;;;;;;;;;5012469;28;20033;-72
2023/04/23 05:52:01;;;;;;;8.68;5.65;;;;;;;;;;5012234;28;20162;-71
2023/04/23 05:54:28;;;;;;;9.45;5.57;;;;;;;;;;4996722;28;20026;-72
2023/04/23 05:56:54;;;;;;;9.77;5.90;;;;;;;;;;5012141;28;20065;-71
2023/04/23 05:59:20;;;;;;;10.10;5.60;;;;;;;;;;5012458;28;20026;-71
2023/04/23 06:01:47;;;;;;;7.70;4.80;;;;;;;;;;5012145;28;20103;-71
2023/04/23 06:04:13;;;;;;;8.88;5.30;;;;;;;;;;5012114;28;20038;-72
2023/04/23 06:06:39;;;;;;;8.55;5.70;;;;;;;;;;5030874;23;20089;-75
2023/04/23 06:09:05;;;;;;;6.90;4.97;;;;;;;;;;4996921;28;20109;-78
2023/04/23 06:11:32;;;;;;;5.90;4.68;;;;;;;;;;4998702;28;20026;-76
2023/04/23 06:13:58;;;;;;;6.95;4.40;;;;;;;;;;4999970;28;20457;-76
2023/04/23 06:16:25;;;;;;;6.20;4.00;;;;;;;;;;4998599;28;20033;-76
2023/04/23 06:18:51;;;;;;;5.63;4.53;;;;;;;;;;4993876;28;20046;-76
2023/04/23 06:21:17;;;;;;;6.25;3.95;;;;;;;;;;4992345;28;20444;-76
2023/04/23 06:23:43;;;;;;;7.78;3.85;;;;;;;;;;4974888;28;20038;-76
2023/04/23 06:26:09;;;;;;;4.60;3.28;;;;;;;;;;4991053;28;20382;-75
2023/04/23 06:28:35;;;;;;;7.38;2.83;;;;;;;;;;4991984;28;20030;-76
2023/04/23 06:31:01;;;;;;;5.63;2.95;;;;;;;;;;4992187;28;20026;-75
2023/04/23 06:33:27;;;;;;;3.63;2.55;;;;;;;;;;4992221;28;20030;-75
2023/04/23 06:35:53;;;;;;;5.03;2.65;;;;;;;;;;4991770;28;20030;-79
2023/04/23 06:38:21;;;;;;;4.40;2.83;;;;;;;;;;4991861;28;20516;-74
2023/04/23 06:40:47;;;;;;;4.75;2.83;;;;;;;;;;4992337;28;20030;-73
2023/04/23 06:43:14;;;;;;;3.70;2.42;;;;;;;;;;4992409;28;20030;-76
2023/04/23 06:45:40;;;;;;;3.38;2.78;;;;;;;;;;4990893;28;20504;-68
2023/04/23 06:48:06;;;;;;;5.72;2.67;;;;;;;;;;4984458;28;20014;-69
2023/04/23 06:50:32;;;;;;;4.03;2.30;;;;;;;;;;4981533;28;20038;-69
2023/04/23 06:52:58;;;;;;;6.20;2.60;;;;;;;;;;4980218;28;20097;-73
2023/04/23 06:55:25;;;;;;;3.53;2.47;;;;;;;;;;4980874;28;20445;-73
2023/04/23 06:57:53;;;;;;;3.28;2.22;;;;;;;;;;4986980;28;20111;-76
2023/04/23 07:00:20;;;;;;;2.33;1.90;;;;;;;;;;4991826;28;20046;-73
2023/04/23 07:02:46;;;;;;;3.70;2.05;;;;;;;;;;4985535;28;20540;-73
2023/04/23 07:05:12;;;;;;;2.78;2.30;;;;;;;;;;4963555;28;20037;-73
2023/04/23 07:07:39;;;;;;;5.10;2.17;;;;;;;;;;4990530;28;20088;-73
2023/04/23 07:10:05;;;;;;;4.72;1.90;;;;;;;;;;4990487;28;20177;-74
2023/04/23 07:12:31;;;;;;;4.65;2.00;;;;;;;;;;4976684;28;20062;-73
2023/04/23 07:14:57;;;;;;;4.10;2.28;;;;;;;;;;4991361;28;20053;-73
2023/04/23 07:17:24;;;;;;;4.88;2.00;;;;;;;;;;4990878;28;20097;-75
2023/04/23 07:19:50;;;;;;;2.45;2.05;;;;;;;;;;4991530;28;20049;-74
2023/04/23 07:22:16;;;;;;;2.95;2.15;;;;;;;;;;4991948;28;20022;-74
2023/04/23 07:24:42;;;;;;;7.50;2.00;;;;;;;;;;4974355;28;20113;-74
2023/04/23 07:27:08;;;;;;;4.43;1.90;;;;;;;;;;4991360;28;20034;-73
2023/04/23 07:29:34;;;;;;;5.57;2.08;;;;;;;;;;4991725;28;20385;-75
2023/04/23 07:32:00;;;;;;;5.05;1.88;;;;;;;;;;4991369;28;20022;-75
2023/04/23 07:34:26;;;;;;;5.30;2.15;;;;;;;;;;4974160;28;20027;-72
2023/04/23 07:36:53;;;;;;;5.82;2.50;;;;;;;;;;4974490;28;20027;-75
2023/04/23 07:39:19;;;;;;;4.03;2.13;;;;;;;;;;4995088;28;20049;-75
2023/04/23 07:41:45;;;;;;;3.53;2.13;;;;;;;;;;4995258;28;20567;-73
2023/04/23 07:44:11;;;;;;;3.08;1.90;;;;;;;;;;4995168;28;20027;-74
2023/04/23 07:46:37;;;;;;;7.95;2.20;;;;;;;;;;4992244;28;21213;-76
2023/04/23 07:49:03;;;;;;;3.30;2.15;;;;;;;;;;4994747;28;20031;-75
2023/04/23 07:51:30;;;;;;;5.22;2.35;;;;;;;;;;4995300;28;20027;-74
2023/04/23 07:53:57;;;;;;;11.20;2.03;;;;;;;;;;4995166;28;20033;-72
2023/04/23 07:56:23;;;;;;;7.28;2.22;;;;;;;;;;4995164;28;20065;-72
2023/04/23 07:58:49;;;;;;;2.78;2.03;;;;;;;;;;4977245;28;20054;-75
2023/04/23 08:01:16;;;;;;;1.98;1.60;;;;;;;;;;4995036;28;20046;-75
2023/04/23 08:03:42;;;;;;;4.35;1.90;;;;;;;;;;4995139;28;20030;-75
2023/04/23 08:06:09;;;;;;;3.90;1.50;;;;;;;;;;4994852;28;20110;-74
2023/04/23 08:08:36;;;;;;;2.20;1.33;;;;;;;;;;4994286;28;20535;-75
2023/04/23 08:11:02;;;;;;;2.88;1.30;;;;;;;;;;4988061;28;20481;-73
2023/04/23 08:13:28;;;;;;;2.92;1.27;;;;;;;;;;4986934;28;20485;-76
2023/04/23 08:15:54;;;;;;;2.20;0.77;;;;;;;;;;4994694;28;20045;-75
2023/04/23 08:18:20;;;;;;;2.35;1.20;;;;;;;;;;4994337;28;20033;-75
2023/04/23 08:20:46;;;;;;;1.45;1.05;;;;;;;;;;4995094;28;20024;-75
2023/04/23 08:23:12;;;;;;;2.15;1.75;;;;;;;;;;4995278;28;20033;-75
2023/04/23 08:25:38;;;;;;;3.53;1.20;;;;;;;;;;4977084;28;20027;-73
2023/04/23 08:28:04;;;;;;;4.80;3.45;;;;;;;;;;4994335;28;20037;-73
2023/04/23 08:30:30;;;;;;;15.43;11.00;;;;;;;;;;4994434;28;20096;-73
2023/04/23 08:32:56;;;;;;;26.70;18.83;;;;;;;;;;4994715;28;20101;-74
2023/04/23 08:35:23;;;;;;;6.88;4.35;;;;;;;;;;4994686;28;20054;-72
2023/04/23 08:37:49;;;;;;;2.05;1.27;;;;;;;;;;4976913;28;20022;-74
2023/04/23 08:40:15;;;;;;;3.38;2.30;;;;;;;;;;4994286;28;20381;-74
2023/04/23 08:42:50;;;;;;;4.35;1.75;;;;;;;;;;4994158;28;20385;-77
2023/04/23 08:45:16;;;;;;;4.25;3.22;;;;;;;;;;4994482;28;20038;-75
2023/04/23 08:47:42;;;;;;;1.50;1.00;;;;;;;;;;4993816;28;20417;-74
2023/04/23 08:50:10;;;;;;;4.47;1.42;;;;;;;;;;4975656;28;20150;-73
2023/04/23 08:52:38;;;;;;;2.60;1.73;;;;;;;;;;4994002;28;20042;-74
2023/04/23 08:55:09;;;;;;;3.50;2.47;;;;;;;;;;4976634;28;20463;-75
2023/04/23 08:57:36;;;;;;;3.22;2.38;;;;;;;;;;4994144;28;20054;-72
2023/04/23 09:00:05;;;;;;;12.77;8.60;;;;;;;;;;4994174;28;20034;-74
2023/04/23 09:02:31;;;;;;;3.50;2.72;;;;;;;;;;4993932;28;20157;-73
2023/04/23 09:04:58;;;;;;;11.68;7.60;;;;;;;;;;4993804;28;20034;-74
2023/04/23 09:07:24;;;;;;;10.73;7.50;;;;;;;;;;4993455;28;20058;-73
2023/04/23 09:09:50;;;;;;;3.72;2.33;;;;;;;;;;4993667;28;20026;-72
2023/04/23 09:12:16;;;;;;;2.67;1.40;;;;;;;;;;4979161;28;20023;-73
2023/04/23 09:14:42;;;;;;;5.72;3.22;;;;;;;;;;4993785;28;20027;-73
2023/04/23 09:17:08;;;;;;;16.30;9.82;;;;;;;;;;4993499;28;20089;-73
2023/04/23 09:19:36;;;;;;;3.30;2.75;;;;;;;;;;4993791;28;20030;-74
2023/04/23 09:22:02;;;;;;;1.50;1.10;;;;;;;;;;4976343;28;20065;-73
2023/04/23 09:24:29;;;;;;;7.75;4.47;;;;;;;;;;4993554;28;20080;-73
2023/04/23 09:26:55;;;;;;;6.38;4.03;;;;;;;;;;4993470;28;20046;-76
2023/04/23 09:29:22;;;;;;;4.57;3.20;;;;;;;;;;4993633;28;20073;-75
2023/04/23 09:31:50;;;;;;;6.13;4.82;;;;;;;;;;4993894;28;20157;-75
2023/04/23 09:34:19;;;;;;;0.75;0.75;;;;;;;;;;4993705;28;20072;-74
2023/04/23 09:36:48;;;;;;;3.13;2.58;;;;;;;;;;4993536;28;20584;-74
2023/04/23 09:39:14;;;;;;;5.28;2.25;;;;;;;;;;4993248;28;20050;-74
2023/04/23 09:41:40;;;;;;;2.95;2.05;;;;;;;;;;4975692;28;20037;-74
2023/04/23 09:44:07;;;;;;;2.05;1.65;;;;;;;;;;4993293;28;20026;-73
2023/04/23 09:46:37;;;;;;;2.25;1.45;;;;;;;;;;4991965;28;20030;-76
2023/04/23 09:49:06;;;;;;;1.60;0.95;;;;;;;;;;4990539;28;20484;-75
2023/04/23 09:51:32;;;;;;;1.08;0.90;;;;;;;;;;4993071;28;20030;-75
2023/04/23 09:54:01;;;;;;;0.77;0.52;;;;;;;;;;4993293;28;20026;-75
2023/04/23 09:56:27;;;;;;;5.45;3.13;;;;;;;;;;4982980;28;20395;-73
2023/04/23 09:58:53;;;;;;;3.63;2.88;;;;;;;;;;4990363;28;20674;-72
2023/04/23 10:01:27;;;;;;;7.03;4.50;;;;;;;;;;4992771;28;20038;-73
2023/04/23 10:03:55;;;;;;;0.75;0.75;;;;;;;;;;4993064;28;20026;-74
2023/04/23 10:06:27;;;;;;;2.75;2.20;;;;;;;;;;4981649;28;20038;-73
2023/04/23 10:08:55;;;;;;;6.40;3.10;;;;;;;;;;4990950;28;20058;-74
2023/04/23 10:11:21;;;;;;;7.28;3.80;;;;;;;;;;4991271;28;20022;-74
2023/04/23 10:13:47;;;;;;;4.85;1.50;;;;;;;;;;4991369;28;20078;-75
2023/04/23 10:16:13;;;;;;;3.72;0.80;;;;;;;;;;4990934;28;20035;-75
2023/04/23 10:18:39;;;;;;;2.80;1.77;;;;;;;;;;4990636;28;20070;-74
2023/04/23 10:21:06;;;;;;;2.15;1.38;;;;;;;;;;4991433;28;20315;-76
2023/04/23 10:23:33;;;;;;;2.95;1.63;;;;;;;;;;4993257;28;20037;-75
2023/04/23 10:26:00;;;;;;;1.85;1.23;;;;;;;;;;4992797;28;20599;-75
2023/04/23 10:28:30;;;;;;;1.67;0.63;;;;;;;;;;4976429;28;20621;-75
2023/04/23 10:30:56;;;;;;;2.67;0.65;;;;;;;;;;4992880;28;20051;-75
2023/04/23 10:33:24;;;;;;;5.20;2.83;;;;;;;;;;4993170;28;20034;-75
2023/04/23 10:35:50;;;;;;;1.85;0.75;;;;;;;;;;4992870;28;20420;-76
2023/04/23 10:38:17;;;;;;;1.83;1.33;;;;;;;;;;4992220;28;20515;-77
2023/04/23 10:40:44;;;;;;;1.33;0.90;;;;;;;;;;4992524;28;20140;-77
2023/04/23 10:43:10;;;;;;;2.70;1.95;;;;;;;;;;4992700;28;20109;-75
2023/04/23 10:45:36;;;;;;;0.68;0.68;;;;;;;;;;4992636;28;20611;-76
2023/04/23 10:48:03;;;;;;;1.48;1.05;;;;;;;;;;4992095;28;20030;-75
2023/04/23 10:50:30;;;;;;;2.42;1.40;;;;;;;;;;4992978;28;20029;-76
2023/04/23 10:52:56;;;;;;;1.48;1.23;;;;;;;;;;4992318;28;20023;-75
2023/04/23 10:55:24;;;;;;;0.93;0.60;;;;;;;;;;4974816;28;20029;-76
2023/04/23 10:57:57;;;;;;;1.55;1.23;;;;;;;;;;4991972;28;20393;-76
2023/04/23 11:00:23;;;;;;;0.93;0.57;;;;;;;;;;4992098;28;20053;-76
2023/04/23 11:02:51;;;;;;;2.63;1.10;;;;;;;;;;4992426;28;20023;-76
2023/04/23 11:05:19;;;;;;;5.38;3.97;;;;;;;;;;4993404;28;20370;-76
2023/04/23 11:08:05;;;;;;;1.63;1.27;;;;;;;;;;4992225;28;20057;-76
2023/04/23 11:10:32;;;;;;;0.57;0.35;;;;;;;;;;4976893;28;20018;-76
2023/04/23 11:13:18;;;;;;;1.55;0.65;;;;;;;;;;4994368;28;20481;-73
2023/04/23 11:15:46;;;;;;;2.63;2.00;;;;;;;;;;4996484;28;20106;-73
2023/04/23 11:18:12;;;;;;;2.40;1.60;;;;;;;;;;4995545;28;20027;-75
2023/04/23 11:20:38;;;;;;;4.35;1.67;;;;;;;;;;4978699;28;20026;-74
2023/04/23 11:23:06;;;;;;;1.08;1.02;;;;;;;;;;4996019;28;20500;-76
2023/04/23 11:25:32;;;;;;;1.92;0.70;;;;;;;;;;4996343;28;20389;-74
2023/04/23 11:27:58;;;;;;;1.15;0.93;;;;;;;;;;4995546;28;20014;-74
2023/04/23 11:30:25;;;;;;;1.65;0.80;;;;;;;;;;4995822;28;20023;-73
2023/04/23 11:32:52;;;;;;;21.75;11.65;;;;;;;;;;4995697;28;20018;-73
2023/04/23 11:35:19;;;;;;;17.45;9.52;;;;;;;;;;4995466;28;20101;-74
2023/04/23 11:37:47;;;;;;;7.68;4.35;;;;;;;;;;4995268;28;20105;-75
2023/04/23 11:40:17;;;;;;;0.70;0.70;;;;;;;;;;4995951;28;20022;-75
2023/04/23 11:42:46;;;;;;;1.55;0.90;;;;;;;;;;4995533;28;20400;-76
2023/04/23 11:45:15;;;;;;;1.45;0.85;;;;;;;;;;4995518;28;20022;-76
2023/04/23 11:47:41;;;;;;;6.28;3.90;;;;;;;;;;4995169;28;20025;-75
2023/04/23 11:50:08;;;;;;;7.63;4.63;;;;;;;;;;4995784;28;20027;-75
2023/04/23 11:52:34;;;;;;;1.65;1.35;;;;;;;;;;4995956;28;20050;-74
2023/04/23 11:55:06;;;;;;;2.22;1.63;;;;;;;;;;4995901;28;20030;-74
2023/04/23 11:57:34;;;;;;;2.15;1.10;;;;;;;;;;4995132;28;20030;-76
2023/04/23 12:00:03;;;;;;;1.48;1.27;;;;;;;;;;4995245;28;20032;-77
2023/04/23 12:02:29;;;;;;;2.90;1.77;;;;;;;;;;4977682;28;20023;-75
2023/04/23 12:04:55;;;;;;;1.58;1.27;;;;;;;;;;4994790;28;20034;-75
2023/04/23 12:07:31;;;;;;;1.80;1.00;;;;;;;;;;4995861;28;20030;-76
2023/04/23 12:10:00;;;;;;;3.47;2.38;;;;;;;;;;4995184;28;20050;-76
2023/04/23 12:12:33;;;;;;;2.72;1.00;;;;;;;;;;4993673;28;20105;-75
2023/04/23 12:15:03;;;;;;;4.20;2.42;;;;;;;;;;4995245;28;20030;-75
2023/04/23 12:17:29;;;;;;;1.55;0.93;;;;;;;;;;4994719;28;20023;-76
2023/04/23 12:19:55;;;;;;;2.38;1.50;;;;;;;;;;4977357;28;20065;-75
2023/04/23 12:22:26;;;;;;;1.77;1.10;;;;;;;;;;4977348;28;20068;-76
2023/04/23 12:24:53;;;;;;;1.63;1.25;;;;;;;;;;4994860;28;20030;-75
2023/04/23 12:27:21;;;;;;;4.50;3.28;;;;;;;;;;4976832;28;20042;-75
2023/04/23 12:29:48;;;;;;;1.83;1.38;;;;;;;;;;4994484;28;20118;-75
2023/04/23 12:32:14;;;;;;;2.28;1.30;;;;;;;;;;4994537;28;20065;-77
2023/04/23 12:34:56;;;;;;;1.40;0.70;;;;;;;;;;4994458;28;20500;-76
2023/04/23 12:37:26;;;;;;;3.13;0.80;;;;;;;;;;4994160;28;20037;-75
2023/04/23 12:39:54;;;;;;;2.13;1.20;;;;;;;;;;4994135;28;20048;-76
2023/04/23 12:42:20;;;;;;;0.80;0.80;;;;;;;;;;4993756;28;20475;-77
2023/04/23 12:44:46;;;;;;;1.15;0.95;;;;;;;;;;4994307;28;20022;-76
2023/04/23 12:47:16;;;;;;;1.95;1.17;;;;;;;;;;4993740;28;20037;-77
2023/04/23 12:49:42;;;;;;;4.20;1.90;;;;;;;;;;4994409;28;20027;-76
2023/04/23 12:52:08;;;;;;;0.60;0.60;;;;;;;;;;4993882;28;20050;-76
2023/04/23 12:54:39;;;;;;;1.25;0.90;;;;;;;;;;4994040;28;20065;-75
2023/04/23 12:57:06;;;;;;;2.47;1.00;;;;;;;;;;4975815;28;20057;-74
2023/04/23 12:59:32;;;;;;;1.73;1.00;;;;;;;;;;4993819;28;20084;-76
2023/04/23 13:02:01;;;;;;;1.70;0.80;;;;;;;;;;4993979;28;20029;-76
2023/04/23 13:04:28;;;;;;;4.53;0.65;;;;;;;;;;4978111;28;20370;-76
2023/04/23 13:06:54;;;;;;;0.80;0.52;;;;;;;;;;4993479;28;20041;-76
2023/04/23 13:09:26;;;;;;;1.67;0.60;;;;;;;;;;4993481;28;20019;-74
2023/04/23 13:11:52;;;;;;;2.17;0.90;;;;;;;;;;4980078;28;20408;-74
2023/04/23 13:14:20;;;;;;;2.05;1.00;;;;;;;;;;4992548;28;20080;-74
2023/04/23 13:16:46;;;;;;;1.42;0.85;;;;;;;;;;4993347;28;20023;-75
2023/04/23 13:19:12;;;;;;;0.63;0.63;;;;;;;;;;4993442;28;20026;-75
2023/04/23 13:21:38;;;;;;;1.23;0.82;;;;;;;;;;4993292;28;20030;-74
2023/04/23 13:24:04;;;;;;;1.38;0.80;;;;;;;;;;4993452;28;20026;-74
2023/04/23 13:26:31;;;;;;;0.88;0.70;;;;;;;;;;4993084;28;20061;-75
2023/04/23 13:28:58;;;;;;;1.10;0.55;;;;;;;;;;4993064;28;20026;-75
2023/04/23 13:31:25;;;;;;;1.80;1.00;;;;;;;;;;4993121;28;20018;-74
2023/04/23 13:33:51;;;;;;;0.70;0.60;;;;;;;;;;4993281;28;20425;-73
2023/04/23 13:36:17;;;;;;;1.85;0.63;;;;;;;;;;4992482;28;20027;-75
2023/04/23 13:38:43;;;;;;;0.82;0.77;;;;;;;;;;4992655;28;20117;-75
2023/04/23 13:41:09;;;;;;;1.33;0.63;;;;;;;;;;4992906;28;20185;-75
2023/04/23 13:43:35;;;;;;;2.30;0.88;;;;;;;;;;4993004;28;20109;-75
2023/04/23 13:46:01;;;;;;;0.70;0.70;;;;;;;;;;4975385;28;20239;-75
2023/04/23 13:48:30;;;;;;;0.98;0.63;;;;;;;;;;4992716;28;20053;-75
2023/04/23 13:50:56;;;;;;;0.88;0.50;;;;;;;;;;4992816;28;20022;-77
2023/04/23 13:53:22;;;;;;;2.28;0.70;;;;;;;;;;4975255;28;20030;-74
2023/04/23 13:55:48;;;;;;;0.40;0.32;;;;;;;;;;4992690;28;20034;-75
2023/04/23 13:58:14;;;;;;;0.70;0.70;;;;;;;;;;4992459;28;20517;-75
2023/04/23 14:00:41;;;;;;;0.75;0.65;;;;;;;;;;4975209;28;20033;-76
2023/04/23 14:03:07;;;;;;;1.45;0.82;;;;;;;;;;4992757;28;20022;-74
2023/04/23 14:05:34;;;;;;;0.95;0.88;;;;;;;;;;4992484;28;20042;-76
2023/04/23 14:08:00;;;;;;;1.15;0.80;;;;;;;;;;4992309;28;20034;-75
2023/04/23 14:10:26;;;;;;;1.33;0.80;;;;;;;;;;4991118;28;20023;-76
2023/04/23 14:12:53;;;;;;;1.00;0.60;;;;;;;;;;4980202;28;20026;-75
2023/04/23 14:15:19;;;;;;;1.33;0.80;;;;;;;;;;4992784;28;20022;-74
2023/04/23 14:17:45;;;;;;;1.00;0.60;;;;;;;;;;4992231;28;20029;-75
2023/04/23 14:20:14;;;;;;;0.80;0.60;;;;;;;;;;4992416;28;20027;-75
2023/04/23 14:22:41;;;;;;;0.45;0.45;;;;;;;;;;4992862;28;20105;-75
2023/04/23 14:25:13;;;;;;;1.58;1.00;;;;;;;;;;4992429;28;20022;-76
2023/04/23 14:27:41;;;;;;;0.75;0.60;;;;;;;;;;4991908;28;20493;-75
2023/04/23 14:30:13;;;;;;;0.77;0.57;;;;;;;;;;4992432;28;20033;-77
2023/04/23 14:32:39;;;;;;;0.85;0.65;;;;;;;;;;4992103;28;20022;-74
2023/04/23 14:35:05;;;;;;;2.03;0.88;;;;;;;;;;4978529;28;20030;-74